createdAt,value
2019-04-28T00:01:04.165Z,28.67
2019-04-28T00:03:33.787Z,29.48
2019-04-28T00:06:01.723Z,30.97
2019-04-28T00:08:29.669Z,29.80
2019-04-28T00:10:58.142Z,26.25
2019-04-28T00:13:26.033Z,26.12
2019-04-28T00:15:56.786Z,25.27
2019-04-28T00:18:26.014Z,26.68
2019-04-28T00:21:28.239Z,24.07
2019-04-28T00:24:25.669Z,26.97
2019-04-28T00:27:01.649Z,24.92
2019-04-28T00:29:40.087Z,26.73
2019-04-28T00:32:01.077Z,23.90
2019-04-28T00:34:31.150Z,23.27
2019-04-28T00:37:07.155Z,23.67
2019-04-28T00:39:35.606Z,23.62
2019-04-28T00:42:03.485Z,23.87
2019-04-28T00:44:31.511Z,24.63
2019-04-28T00:47:01.259Z,25.12
2019-04-28T00:49:47.801Z,21.40
2019-04-28T00:52:16.918Z,25.65
2019-04-28T00:54:45.072Z,33.98
2019-04-28T00:57:13.430Z,24.98
2019-04-28T00:59:54.147Z,26.30
2019-04-28T01:02:45.884Z,22.10
2019-04-28T01:05:14.844Z,23.95
2019-04-28T01:07:44.269Z,23.75
2019-04-28T01:10:12.310Z,26.35
2019-04-28T01:12:41.118Z,23.83
2019-04-28T01:15:33.632Z,24.65
2019-04-28T01:18:14.209Z,24.20
2019-04-28T01:20:43.321Z,20.65
2019-04-28T01:23:11.853Z,22.62
2019-04-28T01:25:41.779Z,21.15
2019-04-28T01:28:09.945Z,23.07
2019-04-28T01:31:03.004Z,19.07
2019-04-28T01:33:41.170Z,21.05
2019-04-28T01:36:10.352Z,20.65
2019-04-28T01:38:40.192Z,25.45
2019-04-28T01:41:09.871Z,24.57
2019-04-28T01:43:41.658Z,22.05
2019-04-28T01:46:10.180Z,22.32
2019-04-28T01:48:39.799Z,20.85
2019-04-28T01:51:11.027Z,19.82
2019-04-28T01:53:39.558Z,22.58
2019-04-28T01:56:07.698Z,23.30
2019-04-28T01:58:35.589Z,21.37
2019-04-28T02:01:03.570Z,25.50
2019-04-28T02:03:32.038Z,21.62
2019-04-28T02:06:00.551Z,23.32
2019-04-28T02:08:30.260Z,24.30
2019-04-28T02:11:00.151Z,19.42
2019-04-28T02:13:30.455Z,21.62
2019-04-28T02:16:00.088Z,23.47
2019-04-28T02:18:29.962Z,22.32
2019-04-28T02:21:19.538Z,23.22
2019-04-28T02:23:49.318Z,21.30
2019-04-28T02:26:19.568Z,23.85
2019-04-28T02:28:50.215Z,22.60
2019-04-28T02:31:24.354Z,26.50
2019-04-28T02:33:53.791Z,22.58
2019-04-28T02:36:20.798Z,20.82
2019-04-28T02:38:51.301Z,18.40
2019-04-28T02:41:24.005Z,25.15
2019-04-28T02:43:53.356Z,22.52
2019-04-28T02:46:21.457Z,22.87
2019-04-28T02:48:53.967Z,22.50
2019-04-28T02:51:30.810Z,22.90
2019-04-28T02:54:00.585Z,24.43
2019-04-28T02:56:30.778Z,22.85
2019-04-28T02:59:01.474Z,22.37
2019-04-28T03:01:30.816Z,25.27
2019-04-28T03:04:00.323Z,20.85
2019-04-28T03:06:30.633Z,23.87
2019-04-28T03:09:00.309Z,26.27
2019-04-28T03:11:28.098Z,28.27
2019-04-28T03:13:56.112Z,21.20
2019-04-28T03:16:25.403Z,28.05
2019-04-28T03:18:53.750Z,25.82
2019-04-28T03:21:25.058Z,22.05
2019-04-28T03:23:54.808Z,24.02
2019-04-28T03:26:47.582Z,20.68
2019-04-28T03:29:37.079Z,26.40
2019-04-28T03:32:37.334Z,19.50
2019-04-28T03:34:53.670Z,20.80
2019-04-28T03:37:23.612Z,19.75
2019-04-28T03:39:50.409Z,22.95
2019-04-28T03:42:21.295Z,22.93
2019-04-28T03:44:50.754Z,23.12
2019-04-28T03:47:21.038Z,20.35
2019-04-28T03:49:50.478Z,21.27
2019-04-28T03:52:21.260Z,23.62
2019-04-28T03:54:50.801Z,21.27
2019-04-28T03:57:21.548Z,22.70
2019-04-28T03:59:51.228Z,24.20
2019-04-28T04:02:23.674Z,19.67
2019-04-28T04:04:52.537Z,20.77
2019-04-28T04:07:21.921Z,18.87
2019-04-28T04:10:01.055Z,21.40
2019-04-28T04:12:41.000Z,23.75
2019-04-28T04:15:21.289Z,23.02
2019-04-28T04:18:11.497Z,37.45
2019-04-28T04:20:40.924Z,20.68
2019-04-28T04:23:11.300Z,23.47
2019-04-28T04:25:41.311Z,24.23
2019-04-28T04:28:10.559Z,22.55
2019-04-28T04:30:40.999Z,24.87
2019-04-28T04:33:11.059Z,25.23
2019-04-28T04:35:38.200Z,26.48
2019-04-28T04:38:10.980Z,21.42
2019-04-28T04:40:41.374Z,23.90
2019-04-28T04:43:11.385Z,24.18
2019-04-28T04:45:40.532Z,23.27
2019-04-28T04:48:11.592Z,24.20
2019-04-28T04:50:41.214Z,25.45
2019-04-28T04:53:11.037Z,24.87
2019-04-28T04:55:41.025Z,20.17
2019-04-28T04:58:10.699Z,24.00
2019-04-28T05:00:51.033Z,29.40
2019-04-28T05:03:29.535Z,26.02
2019-04-28T05:05:57.392Z,23.90
2019-04-28T05:08:26.937Z,21.00
2019-04-28T05:10:55.287Z,22.35
2019-04-28T05:13:23.195Z,23.02
2019-04-28T05:15:52.534Z,25.43
2019-04-28T05:18:24.959Z,25.05
2019-04-28T05:20:53.891Z,22.15
2019-04-28T05:23:51.044Z,21.00
2019-04-28T05:26:21.242Z,23.55
2019-04-28T05:28:53.254Z,25.02
2019-04-28T05:31:23.399Z,25.32
2019-04-28T05:33:49.820Z,19.48
2019-04-28T05:36:18.255Z,21.60
2019-04-28T05:38:46.142Z,21.68
2019-04-28T05:41:14.165Z,22.05
2019-04-28T05:43:42.097Z,20.02
2019-04-28T05:46:10.615Z,19.60
2019-04-28T05:48:55.110Z,22.60
2019-04-28T05:51:26.710Z,21.17
2019-04-28T05:54:22.640Z,24.82
2019-04-28T05:57:22.634Z,21.62
2019-04-28T05:59:55.574Z,19.85
2019-04-28T06:02:27.571Z,26.80
2019-04-28T06:04:55.413Z,19.30
2019-04-28T06:07:42.285Z,24.07
2019-04-28T06:10:12.433Z,26.33
2019-04-28T06:12:40.527Z,25.75
2019-04-28T06:15:11.747Z,21.95
2019-04-28T06:17:39.682Z,26.50
2019-04-28T06:20:07.847Z,21.42
2019-04-28T06:22:35.804Z,27.17
2019-04-28T06:25:03.600Z,24.12
2019-04-28T06:27:32.768Z,26.25
2019-04-28T06:30:00.681Z,22.85
2019-04-28T06:32:28.555Z,22.93
2019-04-28T06:34:56.401Z,20.52
2019-04-28T06:37:24.235Z,24.30
2019-04-28T06:39:52.074Z,21.35
2019-04-28T06:42:19.925Z,24.37
2019-04-28T06:44:47.764Z,22.02
2019-04-28T06:47:16.907Z,24.50
2019-04-28T06:49:44.982Z,26.25
2019-04-28T06:52:12.853Z,20.97
2019-04-28T06:54:40.818Z,20.75
2019-04-28T06:57:08.657Z,23.65
2019-04-28T06:59:36.495Z,20.85
2019-04-28T07:02:04.354Z,21.02
2019-04-28T07:04:32.181Z,21.25
2019-04-28T07:07:00.126Z,24.67
2019-04-28T07:09:28.008Z,20.00
2019-04-28T07:11:55.991Z,23.47
2019-04-28T07:14:23.835Z,26.25
2019-04-28T07:16:51.682Z,22.82
2019-04-28T07:19:19.521Z,23.70
2019-04-28T07:22:05.490Z,29.57
2019-04-28T07:24:34.389Z,23.65
2019-04-28T07:27:02.233Z,27.07
2019-04-28T07:29:30.085Z,22.25
2019-04-28T07:31:57.911Z,21.02
2019-04-28T07:34:25.758Z,20.40
2019-04-28T07:36:53.637Z,27.62
2019-04-28T07:39:21.461Z,27.15
2019-04-28T07:41:49.298Z,27.00
2019-04-28T07:44:17.139Z,24.15
2019-04-28T07:46:44.965Z,23.87
2019-04-28T07:49:12.837Z,23.80
2019-04-28T07:51:59.721Z,29.75
2019-04-28T07:54:27.569Z,25.82
2019-04-28T07:56:55.417Z,22.35
2019-04-28T07:59:23.294Z,26.00
2019-04-28T08:01:51.113Z,28.55
2019-04-28T08:04:19.041Z,24.82
2019-04-28T08:06:47.076Z,27.02
2019-04-28T08:09:16.859Z,28.20
2019-04-28T08:11:44.990Z,25.75
2019-04-28T08:14:12.879Z,26.07
2019-04-28T08:16:40.711Z,24.77
2019-04-28T08:19:08.613Z,26.37
2019-04-28T08:21:36.444Z,25.05
2019-04-28T08:24:04.321Z,32.15
2019-04-28T08:26:32.141Z,26.30
2019-04-28T08:29:00.012Z,28.52
2019-04-28T08:31:35.150Z,28.05
2019-04-28T08:34:05.270Z,31.37
2019-04-28T08:36:33.069Z,29.48
2019-04-28T08:39:00.938Z,32.70
2019-04-28T08:41:28.790Z,30.97
2019-04-28T08:43:56.634Z,31.27
2019-04-28T08:46:24.493Z,31.87
2019-04-28T08:48:52.330Z,27.90
2019-04-28T08:51:20.202Z,28.62
2019-04-28T08:53:48.328Z,32.65
2019-04-28T08:56:16.234Z,25.62
2019-04-28T08:58:44.098Z,29.30
2019-04-28T09:01:11.938Z,25.95
2019-04-28T09:03:39.761Z,28.23
2019-04-28T09:06:07.633Z,27.50
2019-04-28T09:08:35.502Z,28.90
2019-04-28T09:11:03.363Z,30.02
2019-04-28T09:13:31.162Z,28.57
2019-04-28T09:15:59.005Z,26.35
2019-04-28T09:18:26.827Z,25.23
2019-04-28T09:20:54.666Z,23.40
2019-04-28T09:23:22.497Z,23.98
2019-04-28T09:25:50.451Z,27.48
2019-04-28T09:28:18.292Z,24.57
2019-04-28T09:30:46.124Z,26.52
2019-04-28T09:33:14.021Z,25.55
2019-04-28T09:35:41.858Z,26.30
2019-04-28T09:38:09.701Z,22.65
2019-04-28T09:40:37.542Z,22.82
2019-04-28T09:43:13.619Z,24.55
2019-04-28T09:46:06.399Z,22.10
2019-04-28T09:48:34.239Z,22.15
2019-04-28T09:51:07.322Z,24.55
2019-04-28T09:53:35.226Z,23.42
2019-04-28T09:56:03.105Z,22.25
2019-04-28T09:58:31.115Z,25.55
2019-04-28T10:00:58.954Z,21.42
2019-04-28T10:03:28.286Z,21.93
2019-04-28T10:05:56.287Z,21.75
2019-04-28T10:08:24.226Z,23.80
2019-04-28T10:10:55.121Z,21.82
2019-04-28T10:13:23.059Z,22.00
2019-04-28T10:15:52.993Z,22.50
2019-04-28T10:18:20.911Z,25.37
2019-04-28T10:20:48.825Z,23.87
2019-04-28T10:23:16.725Z,22.48
2019-04-28T10:25:44.702Z,22.70
2019-04-28T10:28:12.583Z,21.95
2019-04-28T10:30:40.437Z,23.02
2019-04-28T10:33:08.447Z,21.95
2019-04-28T10:35:36.894Z,21.10
2019-04-28T10:38:08.460Z,25.92
2019-04-28T10:40:42.503Z,26.55
2019-04-28T10:43:10.427Z,21.68
2019-04-28T10:45:49.383Z,22.27
2019-04-28T10:48:18.704Z,21.65
2019-04-28T10:50:48.728Z,20.12
2019-04-28T10:53:17.562Z,21.70
2019-04-28T10:55:47.942Z,21.35
2019-04-28T10:58:15.907Z,19.95
2019-04-28T11:00:43.920Z,20.82
2019-04-28T11:03:12.337Z,18.75
2019-04-28T11:05:42.441Z,21.12
2019-04-28T11:08:28.200Z,20.30
2019-04-28T11:10:56.989Z,21.55
2019-04-28T11:13:25.315Z,21.20
2019-04-28T11:15:53.252Z,20.70
2019-04-28T11:18:21.275Z,21.60
2019-04-28T11:20:49.206Z,18.30
2019-04-28T11:23:17.120Z,17.37
2019-04-28T11:25:46.211Z,21.17
2019-04-28T11:28:14.380Z,19.90
2019-04-28T11:30:43.569Z,20.08
2019-04-28T11:33:45.571Z,18.73
2019-04-28T11:36:18.036Z,19.02
2019-04-28T11:38:45.933Z,17.35
2019-04-28T11:41:13.881Z,21.55
2019-04-28T11:43:42.204Z,19.87
2019-04-28T11:46:11.704Z,17.77
2019-04-28T11:48:47.023Z,16.60
2019-04-28T11:51:15.366Z,20.40
2019-04-28T11:53:47.434Z,21.25
2019-04-28T11:56:15.634Z,18.50
2019-04-28T11:58:43.585Z,19.92
2019-04-28T12:01:13.531Z,17.82
2019-04-28T12:03:41.380Z,19.50
2019-04-28T12:06:12.138Z,19.92
2019-04-28T12:08:40.083Z,19.32
2019-04-28T12:11:26.840Z,23.52
2019-04-28T12:14:34.780Z,17.37
2019-04-28T12:17:30.484Z,17.87
2019-04-28T12:20:04.479Z,20.15
2019-04-28T12:22:32.504Z,18.05
2019-04-28T12:25:00.361Z,21.02
2019-04-28T12:27:28.258Z,18.35
2019-04-28T12:29:56.076Z,18.20
2019-04-28T12:32:23.974Z,20.15
2019-04-28T12:34:51.779Z,19.07
2019-04-28T12:37:19.694Z,19.37
2019-04-28T12:39:47.530Z,19.37
2019-04-28T12:42:15.434Z,18.67
2019-04-28T12:44:43.267Z,20.97
2019-04-28T12:47:11.154Z,18.32
2019-04-28T12:49:46.217Z,20.25
2019-04-28T12:52:14.558Z,19.40
2019-04-28T12:54:44.605Z,17.42
2019-04-28T12:57:12.040Z,19.37
2019-04-28T12:59:47.664Z,20.45
2019-04-28T13:02:37.328Z,20.02
2019-04-28T13:05:09.822Z,18.32
2019-04-28T13:07:38.648Z,18.57
2019-04-28T13:10:06.743Z,21.82
2019-04-28T13:12:34.586Z,18.92
2019-04-28T13:15:02.458Z,18.65
2019-04-28T13:17:30.283Z,20.52
2019-04-28T13:19:58.162Z,17.73
2019-04-28T13:22:26.019Z,19.40
2019-04-28T13:24:53.881Z,18.87
2019-04-28T13:27:21.707Z,17.17
2019-04-28T13:29:49.591Z,18.75
2019-04-28T13:32:17.388Z,20.37
2019-04-28T13:34:45.293Z,21.55
2019-04-28T13:37:13.084Z,22.40
2019-04-28T13:39:59.478Z,24.15
2019-04-28T13:42:27.375Z,24.63
2019-04-28T13:45:14.290Z,25.37
2019-04-28T13:47:42.134Z,22.70
2019-04-28T13:50:32.233Z,20.77
2019-04-28T13:53:00.153Z,22.73
2019-04-28T13:56:05.441Z,25.37
2019-04-28T13:58:38.834Z,22.67
2019-04-28T14:01:44.005Z,21.93
2019-04-28T14:04:30.362Z,21.42
2019-04-28T14:07:05.946Z,22.60
2019-04-28T14:09:33.880Z,22.42
2019-04-28T14:12:01.770Z,23.00
2019-04-28T14:14:29.683Z,23.42
2019-04-28T14:16:57.539Z,23.77
2019-04-28T14:19:25.459Z,21.02
2019-04-28T14:21:53.367Z,20.82
2019-04-28T14:24:21.299Z,21.23
2019-04-28T14:26:49.237Z,22.35
2019-04-28T14:29:17.152Z,21.87
2019-04-28T14:31:45.070Z,22.82
2019-04-28T14:34:12.953Z,21.07
2019-04-28T14:36:42.147Z,23.98
2019-04-28T14:39:10.437Z,23.12
2019-04-28T14:41:38.319Z,23.75
2019-04-28T14:44:06.179Z,24.75
2019-04-28T14:46:34.034Z,22.25
2019-04-28T14:49:01.909Z,21.80
2019-04-28T14:51:29.838Z,24.47
2019-04-28T14:53:57.730Z,23.52
2019-04-28T14:56:25.608Z,23.77
2019-04-28T14:58:53.503Z,21.30
2019-04-28T15:01:46.721Z,24.63
2019-04-28T15:04:24.913Z,22.55
2019-04-28T15:06:59.648Z,23.80
2019-04-28T15:09:44.733Z,19.40
2019-04-28T15:12:12.547Z,25.05
2019-04-28T15:14:40.434Z,22.67
2019-04-28T15:17:08.313Z,21.57
2019-04-28T15:19:36.158Z,20.35
2019-04-28T15:22:04.029Z,21.90
2019-04-28T15:24:31.977Z,16.73
2019-04-28T15:26:59.882Z,18.10
2019-04-28T15:29:27.743Z,20.82
2019-04-28T15:31:55.600Z,17.60
2019-04-28T15:34:23.414Z,24.00
2019-04-28T15:36:51.259Z,19.20
2019-04-28T15:39:19.242Z,20.20
2019-04-28T15:41:47.117Z,21.97
2019-04-28T15:44:14.967Z,19.30
2019-04-28T15:46:42.798Z,20.95
2019-04-28T15:49:10.650Z,19.73
2019-04-28T15:51:38.510Z,18.82
2019-04-28T15:54:06.398Z,20.88
2019-04-28T15:56:46.074Z,20.62
2019-04-28T15:59:14.270Z,20.15
2019-04-28T16:01:42.119Z,21.52
2019-04-28T16:04:10.036Z,18.45
2019-04-28T16:06:37.868Z,17.92
2019-04-28T16:09:08.831Z,18.75
2019-04-28T16:11:37.467Z,18.50
2019-04-28T16:14:05.355Z,19.25
2019-04-28T16:16:33.232Z,18.85
2019-04-28T16:19:01.163Z,17.62
2019-04-28T16:21:29.146Z,18.85
2019-04-28T16:23:57.032Z,16.30
2019-04-28T16:26:25.730Z,18.23
2019-04-28T16:28:53.616Z,19.45
2019-04-28T16:31:21.447Z,19.35
2019-04-28T16:33:49.738Z,17.40
2019-04-28T16:36:17.689Z,18.48
2019-04-28T16:38:45.601Z,17.55
2019-04-28T16:41:17.495Z,16.35
2019-04-28T16:43:46.046Z,18.65
2019-04-28T16:46:13.855Z,18.42
2019-04-28T16:48:41.744Z,17.17
2019-04-28T16:51:09.584Z,18.17
2019-04-28T16:53:37.438Z,18.32
2019-04-28T16:56:14.608Z,20.92
2019-04-28T16:59:07.607Z,20.40
2019-04-28T17:01:57.690Z,19.75
2019-04-28T17:04:25.978Z,17.55
2019-04-28T17:06:56.506Z,17.77
2019-04-28T17:09:28.019Z,21.23
2019-04-28T17:11:55.927Z,20.57
2019-04-28T17:14:23.886Z,17.60
2019-04-28T17:16:53.934Z,19.92
2019-04-28T17:19:22.941Z,20.48
2019-04-28T17:21:51.537Z,17.50
2019-04-28T17:24:20.670Z,18.27
2019-04-28T17:26:48.698Z,18.85
2019-04-28T17:29:20.053Z,21.48
2019-04-28T17:31:48.036Z,20.82
2019-04-28T17:34:17.408Z,17.48
2019-04-28T17:36:45.343Z,17.80
2019-04-28T17:39:20.064Z,18.85
2019-04-28T17:41:48.046Z,20.25
2019-04-28T17:44:17.597Z,20.85
2019-04-28T17:46:55.867Z,22.50
2019-04-28T17:49:31.460Z,19.05
2019-04-28T17:52:00.903Z,22.80
2019-04-28T17:54:29.030Z,21.55
2019-04-28T17:56:57.055Z,21.23
2019-04-28T17:59:27.190Z,20.57
2019-04-28T18:02:26.606Z,20.62
2019-04-28T18:05:16.447Z,19.60
2019-04-28T18:07:59.445Z,20.30
2019-04-28T18:10:29.398Z,20.70
2019-04-28T18:13:00.971Z,20.75
2019-04-28T18:15:54.945Z,21.17
2019-04-28T18:18:41.278Z,22.05
2019-04-28T18:21:09.664Z,22.73
2019-04-28T18:23:37.926Z,20.70
2019-04-28T18:26:06.715Z,21.40
2019-04-28T18:28:35.305Z,21.60
2019-04-28T18:31:37.587Z,21.73
2019-04-28T18:34:23.935Z,20.92
2019-04-28T18:37:29.553Z,24.75
2019-04-28T18:40:20.617Z,19.75
2019-04-28T18:42:53.353Z,21.17
2019-04-28T18:45:21.594Z,21.00
2019-04-28T18:47:49.660Z,25.92
2019-04-28T18:50:17.876Z,25.32
2019-04-28T18:52:49.744Z,21.80
2019-04-28T18:55:17.793Z,22.70
2019-04-28T18:57:46.005Z,19.77
2019-04-28T19:00:15.322Z,21.70
2019-04-28T19:02:45.588Z,26.15
2019-04-28T19:05:13.609Z,24.05
2019-04-28T19:08:15.711Z,25.25
2019-04-28T19:10:52.720Z,25.88
2019-04-28T19:13:26.478Z,22.85
2019-04-28T19:16:16.536Z,27.07
2019-04-28T19:18:44.963Z,23.38
2019-04-28T19:21:15.158Z,23.40
2019-04-28T19:23:43.088Z,23.95
2019-04-28T19:26:12.418Z,23.92
2019-04-28T19:28:40.571Z,24.57
2019-04-28T19:31:08.552Z,22.85
2019-04-28T19:33:36.558Z,21.85
2019-04-28T19:36:04.708Z,23.30
2019-04-28T19:38:33.745Z,23.32
2019-04-28T19:41:01.817Z,25.57
2019-04-28T19:43:29.829Z,21.77
2019-04-28T19:46:01.302Z,19.85
2019-04-28T19:48:29.329Z,21.95
2019-04-28T19:50:57.322Z,22.40
2019-04-28T19:53:25.405Z,26.52
2019-04-28T19:56:00.237Z,24.50
2019-04-28T19:58:32.056Z,24.65
2019-04-28T20:01:08.173Z,30.37
2019-04-28T20:03:36.565Z,26.33
2019-04-28T20:06:04.703Z,26.35
2019-04-28T20:08:32.777Z,25.72
2019-04-28T20:11:00.910Z,23.47
2019-04-28T20:13:31.469Z,26.23
2019-04-28T20:16:00.218Z,27.73
2019-04-28T20:18:29.627Z,25.17
2019-04-28T20:21:00.211Z,23.27
2019-04-28T20:23:28.199Z,25.70
2019-04-28T20:25:57.803Z,24.57
2019-04-28T20:28:26.250Z,26.17
2019-04-28T20:30:54.267Z,23.00
2019-04-28T20:33:22.235Z,23.80
2019-04-28T20:35:55.167Z,25.43
2019-04-28T20:41:06.020Z,26.27
2019-04-28T20:43:33.994Z,23.40
2019-04-28T20:46:02.020Z,26.02
2019-04-28T20:48:29.999Z,23.27
2019-04-28T20:50:57.975Z,25.70
2019-04-28T20:53:28.096Z,25.02
2019-04-28T20:55:56.072Z,25.20
2019-04-28T20:58:23.996Z,30.05
2019-04-28T21:00:52.395Z,25.62
2019-04-28T21:03:20.349Z,25.55
2019-04-28T21:05:48.597Z,25.52
2019-04-28T21:08:16.501Z,25.57
2019-04-28T21:10:44.503Z,24.63
2019-04-28T21:13:12.515Z,25.50
2019-04-28T21:15:40.434Z,24.55
2019-04-28T21:18:08.373Z,26.12
2019-04-28T21:20:37.285Z,29.75
2019-04-28T21:23:05.249Z,27.73
2019-04-28T21:25:33.645Z,26.17
2019-04-28T21:28:01.598Z,25.57
2019-04-28T21:30:30.754Z,27.48
2019-04-28T21:33:03.769Z,27.55
2019-04-28T21:35:31.683Z,24.25
2019-04-28T21:38:01.214Z,26.10
2019-04-28T21:40:29.190Z,25.77
2019-04-28T21:43:14.172Z,26.42
2019-04-28T21:45:51.886Z,25.43
2019-04-28T21:48:41.005Z,24.30
2019-04-28T21:51:12.068Z,26.70
2019-04-28T21:53:40.303Z,24.57
2019-04-28T21:56:08.176Z,25.30
2019-04-28T21:58:36.119Z,22.73
2019-04-28T22:01:04.054Z,26.70
2019-04-28T22:03:34.875Z,27.80
2019-04-28T22:06:02.794Z,24.80
2019-04-28T22:08:30.701Z,25.12
2019-04-28T22:10:58.648Z,26.27
2019-04-28T22:13:29.201Z,25.60
2019-04-28T22:15:57.210Z,28.92
2019-04-28T22:18:27.273Z,25.00
2019-04-28T22:20:55.239Z,23.38
2019-04-28T22:23:38.657Z,24.60
2019-04-28T22:26:09.210Z,25.90
2019-04-28T22:28:37.090Z,25.17
2019-04-28T22:31:06.870Z,24.25
2019-04-28T22:33:36.204Z,25.50
2019-04-28T22:36:04.171Z,24.35
2019-04-28T22:38:32.058Z,24.57
2019-04-28T22:41:00.246Z,24.72
2019-04-28T22:43:28.587Z,22.75
2019-04-28T22:45:58.272Z,25.95
2019-04-28T22:48:26.435Z,22.20
2019-04-28T22:50:55.891Z,25.50
2019-04-28T22:53:29.514Z,22.93
2019-04-28T22:56:05.123Z,24.43
2019-04-28T22:58:39.594Z,20.32
2019-04-28T23:01:15.519Z,22.27
2019-04-28T23:04:09.876Z,24.23
2019-04-28T23:06:37.814Z,23.52
2019-04-28T23:09:07.277Z,23.83
2019-04-28T23:11:35.165Z,21.33
2019-04-28T23:14:03.058Z,23.67
2019-04-28T23:16:33.113Z,24.02
2019-04-28T23:19:02.975Z,22.80
2019-04-28T23:21:41.991Z,25.12
2019-04-28T23:24:09.941Z,26.27
2019-04-28T23:26:41.809Z,27.13
2019-04-28T23:29:20.857Z,23.90
2019-04-28T23:31:48.807Z,26.77
2019-04-28T23:34:16.654Z,25.32
2019-04-28T23:36:44.578Z,27.17
2019-04-28T23:39:14.347Z,24.55
2019-04-28T23:41:59.927Z,24.50
2019-04-28T23:44:27.822Z,27.02
2019-04-28T23:46:58.819Z,28.65
2019-04-28T23:49:29.261Z,23.38
2019-04-28T23:52:25.421Z,25.82
2019-04-28T23:54:54.505Z,24.57
2019-04-28T23:57:23.714Z,28.77
2019-04-28T23:59:51.574Z,26.55
